CS-TNR

  • Mensagens: 9
Boa noite, tres voos TAP de volta ao continente depois de umas voltinhas e um EVJ desviado para PXO, alguem sabe o que se passa?
Na ANA não ha qualquer referencia. informação obtida no FR24.
« Última modificação: 08 de Agosto 2016, 01:36:56 por CS-TNR »


Air Acores

  • Mensagens: 168
Tera a ver com isto?!

LPMA 080030Z 34016G26KT 310V030 9999 FEW014 30/07 Q1016
LPMA 080000Z 35018G28KT 310V020 9999 FEW014 30/07 Q1016
LPMA 072330Z 35021G31KT 9999 FEW014 30/07 Q1017
LPMA 072300Z 34018KT 300V010 9999 FEW014 29/08 Q1017
LPMA 072230Z 34019G29KT 280V010 9999 FEW014 28/07 Q101

Biguds

  • Mensagens: 404
3 da TAP estão a regressar a LPPT e um a LPPR. Ventos fortes, e parece que até às 8h da manhã não há melhoras
Cumprimentos

CS-TNR

  • Mensagens: 9
Obrigado pela informação

CS-TTK

  • Moderador
  • Mensagens: 1445
E mesmo agora de manhã as dificuldades para aterrar em FNC continuam...

anonuser1

  • Mensagens: 273
LPMA 081800Z 010°20G31KT 330V040 9999 FEW015 32/13 Q1016
« Última modificação: 08 de Agosto 2016, 14:37:44 por DeathCenter »


anonuser1

  • Mensagens: 273
Fogo o pessoal é que fica lá a apanhar uma tosta enquanto vê os borregos

decio

  • Mensagens: 297
Parece que hoje ja aterraram mais uns quantos, mas reparei que os voos da TAP estavam aos circulos a NE da ilha antes de aterrar. Conseguem confirmar se a situacao ja esta normalizada?

Os meus pais estao em Lisboa a espera de voo para a Madeira. Tinham voo marcado do Porto no domingo. Foram enviados para Lisboa e de la voaram ate o Funchal, mas apos varias insistencias, o voo foi para Porto Santo. Depois de 20 minutos a espera em PXO, tentaram aterrar novamente no FNC, mas nao conseguiram e voltaram para Lisboa. A TAP neste momento nao tem hoteis nem outro tipo de acomodacao para eles e outros passageiros retidos. Epoca alta e demasiados passageiros a espera.

Eu nao me importo de dormir num aeroporto por uma noite, mas um casal nos seus 60 e tal anos incomoda-me bastante... Espero que a TAP coloque um aviao maior durante o dia para levar esta gente toda para a Madeira.

TAP153

  • Mensagens: 1092
Segundo um dos responsáveis pela central de reservas dos Hoteis Tivoli - amigo pessoal, é impossível acomodar a maioria dos passageiros afetados. Os hotéis em Lisboa estão com capacidades totalmente preenchidas.

Abraço

CS-TTK

  • Moderador
  • Mensagens: 1445
Parece que hoje ja aterraram mais uns quantos, mas reparei que os voos da TAP estavam aos circulos a NE da ilha antes de aterrar. Conseguem confirmar se a situacao ja esta normalizada?

Os meus pais estao em Lisboa a espera de voo para a Madeira. Tinham voo marcado do Porto no domingo. Foram enviados para Lisboa e de la voaram ate o Funchal, mas apos varias insistencias, o voo foi para Porto Santo. Depois de 20 minutos a espera em PXO, tentaram aterrar novamente no FNC, mas nao conseguiram e voltaram para Lisboa. A TAP neste momento nao tem hoteis nem outro tipo de acomodacao para eles e outros passageiros retidos. Epoca alta e demasiados passageiros a espera.

Eu nao me importo de dormir num aeroporto por uma noite, mas um casal nos seus 60 e tal anos incomoda-me bastante... Espero que a TAP coloque um aviao maior durante o dia para levar esta gente toda para a Madeira.

Sou residente na Madeira e, por experiência própria, sei como estas situações são sempre complicadas para a companhia e cansativas para os passageiros :/
Nestas situações, quando o aeroporto da madeira retoma a normalidade, a TAP normalmente faz upgrade de alguns voos para A321 para transportar os passageiros retidos. As vezes até efectua voo extra (regra geral o TP3835/3836).
Neste momento, segundo os dados do FR24, estão dois A321 em Lisboa e no resto do dia de hoje só tem um voo programado em A321 as 22:35 (para Dakar).
Se os dados do FR24 estiverem correctos é bem possível que dois ou mais voos hoje já sejam alvo de upgrade de aeronave e esperemos que seus pais cheguem ao Funchal o mais rápido possivel :)

Angelo Rosa

  • Mensagens: 1600
Se nao me engano o CS-TJG esta em Las Palmas.

Carnim

  • Mensagens: 894
Emergência médica?

Angelo Rosa

  • Mensagens: 1600

Spark

  • Mensagens: 5738
    • A internet nos dias de hoje são 2 veículos: o hypetrain e o hatewagon. ALL ABOARD!!!
Não percebi os motivos das complicações com esses voos, é a meteorologia ou o fumo dos incêndios?

decio

  • Mensagens: 297
Pelo que percebi, meteorologia. Ventos fortes.

O fumo parece que esta a ser empurrado para Sudoeste, portanto para o lado contrario ao aeroporto. Mas os incendios ainda nao estao controlados, portanto, nunca se sabe...

Resposta rápida

Com a resposta rápida pode escrever uma mensagem quando está a ver um tópico sem carregar uma nova página. Pode, ainda, usar o código BBC e os risonhos como usaria numa mensagem normal.

Aviso: este tópico não tem nenhuma mensagem nova há, pelo menos, 90 dias.
A não ser que tenha a certeza que quer responder, por favor, considere a hipótese de criar um novo tópico.

Nota: esta mensagem não irá aparecer até ter sido aprovada por um moderador.
Nome: Email:
Verificação:

 

Tópicos Relacionados

  Assunto / Iniciado por Respostas Última mensagem
15 Respostas
4395 Visualizações
Última mensagem 17 de Novembro 2015, 21:25:09
por brunodias
0 Respostas
604 Visualizações
Última mensagem 27 de Dezembro 2015, 13:00:17
por pampa14
81 Respostas
7966 Visualizações
Última mensagem 25 de Janeiro 2019, 13:42:20
por Hawks
10 Respostas
2014 Visualizações
Última mensagem 07 de Novembro 2017, 10:51:44
por JGonzo
34 Respostas
2407 Visualizações
Última mensagem 18 de Março 2019, 20:28:13
por brunodias

Total 113+0=113 ms, db 0 ms, php 113 ms